createdAt,value
2023-06-05T00:00:10.769Z,99744.44
2023-06-05T00:02:42.722Z,99741.84
2023-06-05T00:05:12.843Z,99739.44
2023-06-05T00:07:42.117Z,99742.63
2023-06-05T00:10:11.270Z,99741.22
2023-06-05T00:12:39.892Z,99740.72
2023-06-05T00:15:09.393Z,99741.22
2023-06-05T00:17:39.007Z,99742.91
2023-06-05T00:20:11.328Z,99733.88
2023-06-05T00:22:45.659Z,99736.56
2023-06-05T00:25:14.444Z,99734.94
2023-06-05T00:27:43.191Z,99731.13
2023-06-05T00:30:12.291Z,99746.75
2023-06-05T00:32:40.980Z,99736.41
2023-06-05T00:35:11.342Z,99736.00
2023-06-05T00:37:41.517Z,99736.31
2023-06-05T00:40:10.783Z,99741.84
2023-06-05T00:42:39.368Z,99741.94
2023-06-05T00:45:10.308Z,99743.03
2023-06-05T00:47:40.443Z,99733.44
2023-06-05T00:50:12.940Z,99737.09
2023-06-05T00:52:44.056Z,99736.28
2023-06-05T00:55:13.271Z,99740.31
2023-06-05T00:57:42.268Z,99734.50
2023-06-05T01:00:13.816Z,99743.44
2023-06-05T01:02:43.971Z,99738.72
2023-06-05T01:05:12.811Z,99741.81
2023-06-05T01:07:43.297Z,99734.97
2023-06-05T01:10:12.894Z,99735.25
2023-06-05T01:12:47.008Z,99744.13
2023-06-05T01:15:17.518Z,99739.72
2023-06-05T01:17:48.713Z,99737.59
2023-06-05T01:20:21.378Z,99739.91
2023-06-05T01:22:53.627Z,99736.97
2023-06-05T01:25:24.276Z,99745.31
2023-06-05T01:27:58.747Z,99746.66
2023-06-05T01:30:33.042Z,99741.00
2023-06-05T01:33:05.701Z,99732.44
2023-06-05T01:35:38.224Z,99737.94
2023-06-05T01:38:10.898Z,99733.84
2023-06-05T01:40:41.035Z,99742.38
2023-06-05T01:43:12.025Z,99741.88
2023-06-05T01:45:42.591Z,99749.63
2023-06-05T01:48:12.215Z,99736.34
2023-06-05T01:50:43.548Z,99745.50
2023-06-05T01:53:14.000Z,99744.38
2023-06-05T01:55:42.793Z,99746.22
2023-06-05T01:58:11.840Z,99742.25
2023-06-05T02:00:40.443Z,99745.63
2023-06-05T02:03:09.224Z,99749.75
2023-06-05T02:05:37.714Z,99749.88
2023-06-05T02:08:07.088Z,99753.00
2023-06-05T02:10:38.572Z,99741.41
2023-06-05T02:13:07.400Z,99744.88
2023-06-05T02:15:36.967Z,99740.53
2023-06-05T02:18:09.413Z,99748.28
2023-06-05T02:20:38.473Z,99750.81
2023-06-05T02:23:07.965Z,99742.44
2023-06-05T02:25:38.311Z,99748.09
2023-06-05T02:28:07.104Z,99744.97
2023-06-05T02:30:35.771Z,99744.47
2023-06-05T02:33:04.987Z,99745.91
2023-06-05T02:35:36.960Z,99749.63
2023-06-05T02:38:07.765Z,99751.78
2023-06-05T02:40:37.897Z,99754.31
2023-06-05T02:43:06.846Z,99752.97
2023-06-05T02:45:35.944Z,99758.25
2023-06-05T02:48:05.740Z,99756.75
2023-06-05T02:50:34.786Z,99756.59
2023-06-05T02:53:06.913Z,99757.22
2023-06-05T02:55:38.972Z,99756.75
2023-06-05T02:58:14.130Z,99760.44
2023-06-05T03:00:51.995Z,99755.94
2023-06-05T03:03:27.207Z,99759.75
2023-06-05T03:05:56.914Z,99757.09
2023-06-05T03:08:28.057Z,99753.44
2023-06-05T03:10:59.956Z,99755.28
2023-06-05T03:13:28.916Z,99752.97
2023-06-05T03:15:59.210Z,99760.75
2023-06-05T03:18:31.970Z,99759.41
2023-06-05T03:21:24.197Z,99759.59
2023-06-05T03:23:53.491Z,99758.03
2023-06-05T03:26:27.397Z,99763.38
2023-06-05T03:28:56.924Z,99761.44
2023-06-05T03:31:26.187Z,99766.41
2023-06-05T03:33:54.948Z,99761.88
2023-06-05T03:36:24.201Z,99765.25
2023-06-05T03:38:53.766Z,99761.09
2023-06-05T03:41:23.815Z,99766.28
2023-06-05T03:43:53.050Z,99762.91
2023-06-05T03:46:25.773Z,99763.66
2023-06-05T03:48:57.435Z,99757.19
2023-06-05T03:51:31.107Z,99764.34
2023-06-05T03:54:00.924Z,99761.75
2023-06-05T03:56:40.915Z,99762.78
2023-06-05T03:59:22.274Z,99766.69
2023-06-05T04:01:59.250Z,99760.78
2023-06-05T04:04:27.987Z,99766.00
2023-06-05T04:07:01.750Z,99759.13
2023-06-05T04:09:32.647Z,99760.34
2023-06-05T04:12:02.866Z,99763.34
2023-06-05T04:14:32.940Z,99764.22
2023-06-05T04:17:01.758Z,99763.69
2023-06-05T04:19:30.456Z,99760.44
2023-06-05T04:22:00.541Z,99754.59
2023-06-05T04:24:30.611Z,99752.38
2023-06-05T04:27:01.969Z,99748.03
2023-06-05T04:29:33.615Z,99757.34
2023-06-05T04:32:28.318Z,99767.72
2023-06-05T04:34:57.380Z,99757.09
2023-06-05T04:37:26.109Z,99749.72
2023-06-05T04:39:56.310Z,99752.00
2023-06-05T04:42:25.067Z,99751.09
2023-06-05T04:45:02.891Z,99758.06
2023-06-05T04:47:34.627Z,99756.09
2023-06-05T04:50:05.498Z,99740.38
2023-06-05T04:52:37.848Z,99740.69
2023-06-05T04:55:07.562Z,99738.41
2023-06-05T04:57:37.737Z,99748.47
2023-06-05T05:00:12.356Z,99750.31
2023-06-05T05:02:41.131Z,99740.06
2023-06-05T05:05:10.359Z,99742.44
2023-06-05T05:07:42.225Z,99746.91
2023-06-05T05:10:11.863Z,99744.00
2023-06-05T05:12:43.471Z,99759.44
2023-06-05T05:15:14.353Z,99747.47
2023-06-05T05:17:53.424Z,99752.84
2023-06-05T05:20:27.016Z,99747.97
2023-06-05T05:22:57.172Z,99752.03
2023-06-05T05:25:52.032Z,99755.56
2023-06-05T05:28:21.320Z,99755.03
2023-06-05T05:30:54.702Z,99759.75
2023-06-05T05:33:24.418Z,99759.50
2023-06-05T05:35:55.430Z,99755.59
2023-06-05T05:38:24.630Z,99763.69
2023-06-05T05:40:53.607Z,99771.09
2023-06-05T05:43:30.242Z,99776.69
2023-06-05T05:46:02.315Z,99774.69
2023-06-05T05:48:34.095Z,99777.34
2023-06-05T05:51:08.587Z,99771.00
2023-06-05T05:53:40.445Z,99774.66
2023-06-05T05:56:11.954Z,99768.88
2023-06-05T05:58:47.567Z,99775.09
2023-06-05T06:01:18.199Z,99770.66
2023-06-05T06:03:46.929Z,99781.72
2023-06-05T06:06:26.415Z,99779.78
2023-06-05T06:09:06.304Z,99781.00
2023-06-05T06:12:07.203Z,99780.13
2023-06-05T06:14:42.965Z,99773.06
2023-06-05T06:17:14.034Z,99777.84
2023-06-05T06:19:43.478Z,99777.72
2023-06-05T06:22:15.334Z,99771.41
2023-06-05T06:24:47.449Z,99781.50
2023-06-05T06:27:33.917Z,99785.06
2023-06-05T06:30:04.202Z,99780.13
2023-06-05T06:32:37.022Z,99778.94
2023-06-05T06:35:07.575Z,99785.81
2023-06-05T06:37:37.125Z,99785.34
2023-06-05T06:40:11.037Z,99779.75
2023-06-05T06:42:40.146Z,99786.81
2023-06-05T06:45:18.841Z,99779.75
2023-06-05T06:48:05.815Z,99776.91
2023-06-05T06:50:36.029Z,99778.09
2023-06-05T06:53:05.080Z,99782.31
2023-06-05T06:55:34.244Z,99783.34
2023-06-05T06:58:02.956Z,99779.00
2023-06-05T07:00:31.617Z,99774.78
2023-06-05T07:03:01.623Z,99776.06
2023-06-05T07:05:38.983Z,99774.88
2023-06-05T07:08:12.630Z,99785.41
2023-06-05T07:10:43.492Z,99774.09
2023-06-05T07:13:12.537Z,99775.97
2023-06-05T07:15:41.125Z,99775.19
2023-06-05T07:18:42.054Z,99768.41
2023-06-05T07:21:13.748Z,99768.09
2023-06-05T07:23:43.324Z,99773.47
2023-06-05T07:26:19.807Z,99775.72
2023-06-05T07:28:49.422Z,99769.75
2023-06-05T07:31:18.598Z,99769.13
2023-06-05T07:33:48.742Z,99769.16
2023-06-05T07:36:17.724Z,99765.00
2023-06-05T07:38:46.318Z,99756.28
2023-06-05T07:41:14.807Z,99758.59
2023-06-05T07:43:43.483Z,99757.81
2023-06-05T07:46:12.420Z,99754.31
2023-06-05T07:48:41.025Z,99754.78
2023-06-05T07:51:13.261Z,99752.03
2023-06-05T07:53:42.123Z,99753.06
2023-06-05T07:56:13.214Z,99754.03
2023-06-05T07:58:42.885Z,99765.47
2023-06-05T08:01:14.114Z,99756.44
2023-06-05T08:03:50.082Z,99761.66
2023-06-05T08:06:33.716Z,99759.00
2023-06-05T08:09:13.917Z,99756.22
2023-06-05T08:12:01.159Z,99747.97
2023-06-05T08:14:29.802Z,99745.50
2023-06-05T08:16:58.419Z,99751.06
2023-06-05T08:19:26.986Z,99754.09
2023-06-05T08:21:58.093Z,99748.66
2023-06-05T08:24:28.301Z,99742.75
2023-06-05T08:26:57.074Z,99736.81
2023-06-05T08:29:25.664Z,99741.03
2023-06-05T08:31:54.209Z,99743.28
2023-06-05T08:34:22.680Z,99743.28
2023-06-05T08:36:51.925Z,99742.97
2023-06-05T08:39:21.919Z,99748.09
2023-06-05T08:41:53.096Z,99739.41
2023-06-05T08:44:21.674Z,99745.03
2023-06-05T08:46:51.596Z,99741.09
2023-06-05T08:49:25.566Z,99739.66
2023-06-05T08:51:55.981Z,99736.69
2023-06-05T08:54:26.961Z,99739.72
2023-06-05T08:56:55.949Z,99730.16
2023-06-05T08:59:26.067Z,99724.78
2023-06-05T09:01:54.966Z,99720.78
2023-06-05T09:04:26.533Z,99710.22
2023-06-05T09:06:55.888Z,99712.41
2023-06-05T09:09:26.782Z,99715.97
2023-06-05T09:12:04.682Z,99709.09
2023-06-05T09:14:34.047Z,99703.84
2023-06-05T09:17:03.813Z,99696.59
2023-06-05T09:19:42.322Z,99680.06
2023-06-05T09:22:13.745Z,99675.91
2023-06-05T09:24:44.946Z,99675.75
2023-06-05T09:27:13.635Z,99673.53
2023-06-05T09:29:44.963Z,99697.72
2023-06-05T09:32:20.974Z,99685.94
2023-06-05T09:35:01.041Z,99687.69
2023-06-05T09:37:40.150Z,99684.75
2023-06-05T09:40:16.200Z,99679.19
2023-06-05T09:42:44.925Z,99684.59
2023-06-05T09:45:13.468Z,99678.44
2023-06-05T09:47:53.574Z,99676.03
2023-06-05T09:50:25.878Z,99667.72
2023-06-05T09:52:57.866Z,99670.03
2023-06-05T09:55:29.640Z,99667.84
2023-06-05T09:58:02.070Z,99667.41
2023-06-05T10:00:31.158Z,99668.88
2023-06-05T10:03:00.746Z,99666.88
2023-06-05T10:05:30.177Z,99677.50
2023-06-05T10:07:59.950Z,99672.91
2023-06-05T10:10:31.921Z,99695.09
2023-06-05T10:13:00.864Z,99700.50
2023-06-05T10:15:29.996Z,99701.09
2023-06-05T10:17:59.461Z,99699.63
2023-06-05T10:20:28.827Z,99696.06
2023-06-05T10:22:59.803Z,99714.69
2023-06-05T10:25:31.514Z,99744.56
2023-06-05T10:28:19.160Z,99729.03
2023-06-05T10:31:23.668Z,99756.44
2023-06-05T10:34:17.054Z,99743.97
2023-06-05T10:37:01.033Z,99740.00
2023-06-05T10:39:32.513Z,99731.88
2023-06-05T10:42:02.804Z,99711.00
2023-06-05T10:44:47.114Z,99711.44
2023-06-05T10:47:56.212Z,99694.25
2023-06-05T10:50:32.404Z,99700.25
2023-06-05T10:53:01.649Z,99708.13
2023-06-05T10:55:44.508Z,99710.22
2023-06-05T10:58:16.617Z,99693.53
2023-06-05T11:01:20.716Z,99697.88
2023-06-05T11:03:57.521Z,99694.22
2023-06-05T11:06:26.831Z,99689.09
2023-06-05T11:09:13.748Z,99691.78
2023-06-05T11:12:02.395Z,99688.28
2023-06-05T11:14:49.045Z,99675.84
2023-06-05T11:17:34.115Z,99689.72
2023-06-05T11:20:06.604Z,99692.22
2023-06-05T11:22:35.505Z,99666.09
2023-06-05T11:25:22.658Z,99679.16
2023-06-05T11:27:53.480Z,99680.66
2023-06-05T11:30:39.141Z,99669.41
2023-06-05T11:33:15.910Z,99674.03
2023-06-05T11:35:46.553Z,99667.22
2023-06-05T11:38:18.803Z,99661.44
2023-06-05T11:40:49.771Z,99665.09
2023-06-05T11:43:18.663Z,99666.16
2023-06-05T11:45:54.316Z,99661.72
2023-06-05T11:48:23.699Z,99662.81
2023-06-05T11:50:57.745Z,99665.06
2023-06-05T11:53:27.292Z,99664.28
2023-06-05T11:56:07.752Z,99667.22
2023-06-05T11:58:38.638Z,99675.22
2023-06-05T12:01:16.002Z,99675.94
2023-06-05T12:03:44.853Z,99699.56
2023-06-05T12:06:14.524Z,99709.66
2023-06-05T12:08:44.154Z,99704.25
2023-06-05T12:11:23.882Z,99688.50
2023-06-05T12:13:53.868Z,99698.09
2023-06-05T12:16:34.176Z,99698.84
2023-06-05T12:19:13.943Z,99699.94
2023-06-05T12:21:44.195Z,99691.44
2023-06-05T12:24:13.187Z,99695.13
2023-06-05T12:26:55.295Z,99691.59
2023-06-05T12:29:26.380Z,99693.09
2023-06-05T12:31:58.902Z,99696.88
2023-06-05T12:37:31.235Z,99691.72
2023-06-05T12:40:01.219Z,99689.09
2023-06-05T12:42:37.716Z,99687.19
2023-06-05T12:45:08.811Z,99702.50
2023-06-05T12:47:40.015Z,99692.13
2023-06-05T12:50:13.387Z,99697.25
2023-06-05T12:52:43.168Z,99690.56
2023-06-05T12:55:12.302Z,99695.25
2023-06-05T12:57:41.975Z,99696.59
2023-06-05T13:00:14.557Z,99694.72
2023-06-05T13:02:47.030Z,99695.66
2023-06-05T13:05:16.880Z,99686.06
2023-06-05T13:07:46.330Z,99695.38
2023-06-05T13:10:15.212Z,99691.44
2023-06-05T13:12:44.464Z,99688.41
2023-06-05T13:15:13.405Z,99683.84
2023-06-05T13:17:42.260Z,99683.09
2023-06-05T13:20:14.176Z,99701.06
2023-06-05T13:22:43.717Z,99685.75
2023-06-05T13:25:13.452Z,99676.88
2023-06-05T13:27:42.185Z,99682.41
2023-06-05T13:30:11.447Z,99663.38
2023-06-05T13:32:40.620Z,99668.84
2023-06-05T13:35:12.206Z,99670.91
2023-06-05T13:37:41.909Z,99661.25
2023-06-05T13:40:12.990Z,99666.63
2023-06-05T13:42:41.917Z,99664.25
2023-06-05T13:45:11.849Z,99664.31
2023-06-05T13:47:40.554Z,99656.16
2023-06-05T13:50:09.572Z,99660.91
2023-06-05T13:52:39.484Z,99644.06
2023-06-05T13:55:09.450Z,99646.47
2023-06-05T13:57:38.042Z,99653.56
2023-06-05T14:00:07.630Z,99648.59
2023-06-05T14:02:36.387Z,99651.81
2023-06-05T14:05:05.230Z,99642.63
2023-06-05T14:07:44.554Z,99643.69
2023-06-05T14:10:19.362Z,99646.59
2023-06-05T14:12:48.667Z,99652.22
2023-06-05T14:15:18.847Z,99655.97
2023-06-05T14:17:50.903Z,99647.91
2023-06-05T14:20:20.973Z,99652.75
2023-06-05T14:22:49.663Z,99641.16
2023-06-05T14:25:20.234Z,99635.28
2023-06-05T14:27:49.053Z,99627.47
2023-06-05T14:30:17.626Z,99627.88
2023-06-05T14:32:46.324Z,99621.53
2023-06-05T14:35:15.110Z,99622.72
2023-06-05T14:37:43.514Z,99616.34
2023-06-05T14:40:12.739Z,99625.47
2023-06-05T14:42:42.745Z,99620.91
2023-06-05T14:45:12.269Z,99621.78
2023-06-05T14:47:40.977Z,99618.66
2023-06-05T14:50:10.313Z,99619.34
2023-06-05T14:52:39.449Z,99614.41
2023-06-05T14:55:10.379Z,99611.41
2023-06-05T14:57:39.104Z,99609.47
2023-06-05T15:00:10.351Z,99615.88
2023-06-05T15:02:39.030Z,99610.59
2023-06-05T15:05:09.018Z,99615.31
2023-06-05T15:07:39.089Z,99611.69
2023-06-05T15:10:09.723Z,99614.69
2023-06-05T15:12:39.089Z,99616.78
2023-06-05T15:15:20.587Z,99608.97
2023-06-05T15:17:50.628Z,99619.22
2023-06-05T15:20:20.468Z,99617.88
2023-06-05T15:23:00.393Z,99618.56
2023-06-05T15:25:41.163Z,99618.16
2023-06-05T15:28:09.727Z,99627.47
2023-06-05T15:30:41.470Z,99626.09
2023-06-05T15:33:10.128Z,99626.19
2023-06-05T15:35:43.835Z,99633.28
2023-06-05T15:38:13.251Z,99631.63
2023-06-05T15:40:45.161Z,99634.72
2023-06-05T15:43:14.207Z,99643.69
2023-06-05T15:45:46.639Z,99639.09
2023-06-05T15:48:17.789Z,99650.28
2023-06-05T15:50:46.509Z,99648.38
2023-06-05T15:53:15.039Z,99656.91
2023-06-05T15:55:43.532Z,99654.22
2023-06-05T15:58:12.878Z,99661.03
2023-06-05T16:00:41.367Z,99625.75
2023-06-05T16:03:12.742Z,99630.06
2023-06-05T16:05:42.059Z,99619.53
2023-06-05T16:08:11.963Z,99633.19
2023-06-05T16:10:40.569Z,99641.38
2023-06-05T16:13:12.290Z,99636.09
2023-06-05T16:15:42.766Z,99633.19
2023-06-05T16:18:14.999Z,99639.97
2023-06-05T16:20:43.685Z,99641.84
2023-06-05T16:23:12.435Z,99642.66
2023-06-05T16:25:41.507Z,99639.59
2023-06-05T16:28:10.056Z,99639.81
2023-06-05T16:30:38.524Z,99640.41
2023-06-05T16:33:07.142Z,99637.75
2023-06-05T16:35:37.119Z,99643.91
2023-06-05T16:38:07.012Z,99643.91
2023-06-05T16:40:41.324Z,99631.47
2023-06-05T16:43:12.349Z,99628.72
2023-06-05T16:45:43.902Z,99626.41
2023-06-05T16:48:14.116Z,99626.81
2023-06-05T16:50:47.242Z,99633.84
2023-06-05T16:53:15.946Z,99629.94
2023-06-05T16:55:44.572Z,99630.41
2023-06-05T16:58:17.792Z,99635.34
2023-06-05T17:00:50.766Z,99632.50
2023-06-05T17:03:19.653Z,99633.91
2023-06-05T17:05:52.511Z,99632.88
2023-06-05T17:08:21.717Z,99633.47
2023-06-05T17:10:50.072Z,99627.00
2023-06-05T17:13:18.635Z,99629.44
2023-06-05T17:15:48.516Z,99630.81
2023-06-05T17:18:17.230Z,99625.41
2023-06-05T17:20:45.894Z,99628.78
2023-06-05T17:23:15.908Z,99634.38
2023-06-05T17:25:47.817Z,99634.19
2023-06-05T17:28:24.355Z,99634.38
2023-06-05T17:30:53.015Z,99629.16
2023-06-05T17:33:21.870Z,99633.69
2023-06-05T17:35:50.652Z,99628.94
2023-06-05T17:38:20.727Z,99626.19
2023-06-05T17:40:57.290Z,99631.63
2023-06-05T17:43:26.056Z,99636.88
2023-06-05T17:45:54.575Z,99638.53
2023-06-05T17:48:24.445Z,99640.03
2023-06-05T17:50:53.372Z,99645.84
2023-06-05T17:53:25.063Z,99635.09
2023-06-05T17:55:56.380Z,99638.16
2023-06-05T17:58:25.024Z,99645.09
2023-06-05T18:00:54.284Z,99646.22
2023-06-05T18:03:24.151Z,99655.84
2023-06-05T18:05:56.058Z,99648.78
2023-06-05T18:08:26.137Z,99648.72
2023-06-05T18:10:54.764Z,99654.03
2023-06-05T18:13:23.339Z,99657.31
2023-06-05T18:15:52.007Z,99660.28
2023-06-05T18:18:26.968Z,99658.09
2023-06-05T18:21:00.163Z,99661.41
2023-06-05T18:23:33.576Z,99661.78
2023-06-05T18:26:02.382Z,99662.25
2023-06-05T18:28:31.381Z,99651.69
2023-06-05T18:31:06.379Z,99671.06
2023-06-05T18:33:52.959Z,99667.47
2023-06-05T18:36:43.226Z,99663.44
2023-06-05T18:39:16.093Z,99671.78
2023-06-05T18:41:46.090Z,99672.09
2023-06-05T18:44:15.685Z,99676.88
2023-06-05T18:46:44.531Z,99669.13
2023-06-05T18:49:12.990Z,99673.13
2023-06-05T18:51:49.333Z,99670.50
2023-06-05T18:54:24.748Z,99673.38
2023-06-05T18:56:53.667Z,99671.69
2023-06-05T18:59:22.500Z,99674.28
2023-06-05T19:01:52.405Z,99680.72
2023-06-05T19:04:21.180Z,99675.38
2023-06-05T19:06:49.972Z,99674.03
2023-06-05T19:09:18.360Z,99670.81
2023-06-05T19:11:51.683Z,99671.44
2023-06-05T19:14:20.225Z,99679.94
2023-06-05T19:16:48.906Z,99676.13
2023-06-05T19:19:17.342Z,99673.91
2023-06-05T19:21:45.981Z,99678.44
2023-06-05T19:24:14.703Z,99684.47
2023-06-05T19:26:43.486Z,99689.63
2023-06-05T19:29:13.701Z,99684.56
2023-06-05T19:31:42.388Z,99684.06
2023-06-05T19:34:11.316Z,99694.25
2023-06-05T19:36:39.730Z,99692.56
2023-06-05T19:39:08.430Z,99693.25
2023-06-05T19:41:37.208Z,99691.34
2023-06-05T19:44:06.263Z,99691.09
2023-06-05T19:46:39.322Z,99693.03
2023-06-05T19:49:10.031Z,99696.19
2023-06-05T19:51:39.061Z,99701.25
2023-06-05T19:54:08.378Z,99702.91
2023-06-05T19:56:37.171Z,99704.75
2023-06-05T19:59:05.568Z,99704.56
2023-06-05T20:01:39.018Z,99701.88
2023-06-05T20:04:09.831Z,99709.25
2023-06-05T20:06:38.442Z,99706.38
2023-06-05T20:09:07.293Z,99712.13
2023-06-05T20:11:35.909Z,99713.66
2023-06-05T20:14:04.587Z,99708.63
2023-06-05T20:16:33.161Z,99710.72
2023-06-05T20:19:01.995Z,99713.38
2023-06-05T20:21:35.436Z,99714.38
2023-06-05T20:24:08.341Z,99713.66
2023-06-05T20:26:37.304Z,99705.88
2023-06-05T20:29:08.680Z,99717.50
2023-06-05T20:31:37.532Z,99719.59
2023-06-05T20:34:05.764Z,99719.31
2023-06-05T20:36:35.712Z,99723.91
2023-06-05T20:39:04.781Z,99719.25
2023-06-05T20:41:33.324Z,99723.66
2023-06-05T20:44:01.839Z,99726.47
2023-06-05T20:46:30.674Z,99725.31
2023-06-05T20:49:02.132Z,99730.75
2023-06-05T20:51:31.039Z,99728.50
2023-06-05T20:54:01.049Z,99736.56
2023-06-05T20:56:30.720Z,99736.44
2023-06-05T20:58:59.543Z,99734.00
2023-06-05T21:01:30.494Z,99732.03
2023-06-05T21:04:00.472Z,99736.13
2023-06-05T21:06:29.124Z,99731.19
2023-06-05T21:08:57.879Z,99737.31
2023-06-05T21:11:28.052Z,99744.31
2023-06-05T21:13:56.524Z,99743.84
2023-06-05T21:16:26.594Z,99742.66
2023-06-05T21:18:55.221Z,99746.91
2023-06-05T21:21:23.685Z,99749.78
2023-06-05T21:23:52.235Z,99743.81
2023-06-05T21:26:21.727Z,99742.13
2023-06-05T21:28:51.678Z,99749.50
2023-06-05T21:31:20.361Z,99748.78
2023-06-05T21:33:48.912Z,99739.78
2023-06-05T21:36:17.410Z,99749.78
2023-06-05T21:38:46.549Z,99744.06
2023-06-05T21:41:16.369Z,99742.84
2023-06-05T21:43:44.896Z,99745.19
2023-06-05T21:46:15.098Z,99740.09
2023-06-05T21:48:43.957Z,99742.03
2023-06-05T21:51:12.676Z,99753.09
2023-06-05T21:53:41.501Z,99754.09
2023-06-05T21:56:10.089Z,99748.78
2023-06-05T21:58:38.722Z,99744.72
2023-06-05T22:01:07.689Z,99745.06
2023-06-05T22:03:38.254Z,99743.63
2023-06-05T22:06:08.146Z,99745.97
2023-06-05T22:08:36.715Z,99749.28
2023-06-05T22:11:05.779Z,99741.19
2023-06-05T22:13:34.012Z,99739.53
2023-06-05T22:16:03.467Z,99735.09
2023-06-05T22:18:32.424Z,99733.75
2023-06-05T22:21:02.779Z,99737.97
2023-06-05T22:23:31.561Z,99735.53
2023-06-05T22:25:59.995Z,99734.31
2023-06-05T22:28:28.442Z,99734.47
2023-06-05T22:30:57.114Z,99735.34
2023-06-05T22:33:26.438Z,99733.91
2023-06-05T22:35:54.958Z,99742.00
2023-06-05T22:38:27.586Z,99740.19
2023-06-05T22:40:56.189Z,99733.66
2023-06-05T22:43:24.744Z,99738.31
2023-06-05T22:45:53.312Z,99739.72
2023-06-05T22:48:21.811Z,99739.34
2023-06-05T22:50:54.688Z,99748.66
2023-06-05T22:53:25.726Z,99742.44
2023-06-05T22:55:54.448Z,99745.81
2023-06-05T22:58:22.930Z,99740.66
2023-06-05T23:00:53.817Z,99749.22
2023-06-05T23:03:22.514Z,99742.09
2023-06-05T23:05:51.151Z,99742.66
2023-06-05T23:08:19.913Z,99745.97
2023-06-05T23:10:49.823Z,99747.81
2023-06-05T23:13:18.396Z,99739.00
2023-06-05T23:15:46.828Z,99755.44
2023-06-05T23:18:16.119Z,99743.13
2023-06-05T23:20:44.771Z,99740.84
2023-06-05T23:23:13.226Z,99747.63
2023-06-05T23:25:44.492Z,99753.78
2023-06-05T23:28:14.580Z,99753.28
2023-06-05T23:30:43.360Z,99751.28
2023-06-05T23:33:13.502Z,99751.31
2023-06-05T23:35:42.472Z,99753.44
2023-06-05T23:38:10.997Z,99765.41
2023-06-05T23:40:39.516Z,99753.44
2023-06-05T23:43:08.223Z,99757.94
2023-06-05T23:45:38.351Z,99757.25
2023-06-05T23:48:09.675Z,99756.44
2023-06-05T23:50:38.183Z,99757.59
2023-06-05T23:53:06.771Z,99750.56
2023-06-05T23:55:35.270Z,99752.16
2023-06-05T23:58:03.871Z,99762.16
